Terminal Aerodrome Forecast
Issued by NWS Des Moines, IA

Home | Current Version | Previous Version | Text Only | Print | Product List | Glossary On
Versions: 1 2 3 4 5 6 7 8 9 10 11 12 13 14 15 16 17 18 19 20 21 22 23 24 25 26
000
FTUS43 KDMX 201738
TAFDSM
TAF
KDSM 201738Z 2018/2118 20005KT P6SM FEW200 FEW250
     FM202300 VRB03KT 4SM BR BKN007
     FM210500 VRB03KT 2SM -DZ BR OVC005
     FM211100 06004KT 1/2SM -DZ FG OVC003
     FM211600 06005KT 1SM -DZ BR OVC005=

USA.gov is the U.S. government's official web portal to all federal, state and local government web resources and services.